createdAt,value
2024-01-15T00:02:03.122Z,14.77
2024-01-15T00:05:05.267Z,12.45
2024-01-15T00:08:06.959Z,13.75
2024-01-15T00:11:08.659Z,12.45
2024-01-15T00:14:10.524Z,10.60
2024-01-15T00:17:14.478Z,15.35
2024-01-15T00:20:16.829Z,15.70
2024-01-15T00:23:18.625Z,13.80
2024-01-15T00:26:20.254Z,14.85
2024-01-15T00:29:22.057Z,8.43
2024-01-15T00:32:23.823Z,9.40
2024-01-15T00:35:25.525Z,12.30
2024-01-15T00:38:27.262Z,13.77
2024-01-15T00:41:29.156Z,12.90
2024-01-15T00:44:30.835Z,10.70
2024-01-15T00:47:32.492Z,11.75
2024-01-15T00:50:34.308Z,9.18
2024-01-15T00:53:35.993Z,14.43
2024-01-15T00:56:38.449Z,9.27
2024-01-15T00:59:40.416Z,8.37
2024-01-15T01:02:42.648Z,8.57
2024-01-15T01:08:46.785Z,9.17
2024-01-15T01:11:48.762Z,11.55
2024-01-15T01:14:50.687Z,10.68
2024-01-15T01:17:52.531Z,14.02
2024-01-15T01:20:54.708Z,10.35
2024-01-15T01:23:56.496Z,12.40
2024-01-15T01:26:58.165Z,9.93
2024-01-15T01:29:59.856Z,8.15
2024-01-15T01:33:01.606Z,11.98
2024-01-15T01:36:08.626Z,13.60
2024-01-15T01:39:11.171Z,9.45
2024-01-15T01:42:13.629Z,8.45
2024-01-15T01:45:15.961Z,15.38
2024-01-15T01:48:17.933Z,14.77
2024-01-15T01:51:21.073Z,11.75
2024-01-15T01:54:22.993Z,12.25
2024-01-15T01:57:24.999Z,11.65
2024-01-15T02:00:26.805Z,11.35
2024-01-15T02:03:29.526Z,16.25
2024-01-15T02:06:31.464Z,10.93
2024-01-15T02:09:33.473Z,15.88
2024-01-15T02:12:35.245Z,12.73
2024-01-15T02:15:36.983Z,15.05
2024-01-15T02:18:43.088Z,15.23
2024-01-15T02:21:45.552Z,16.10
2024-01-15T02:24:47.431Z,15.97
2024-01-15T02:27:49.364Z,13.90
2024-01-15T02:30:51.278Z,20.25
2024-01-15T02:33:53.080Z,21.63
2024-01-15T02:36:54.917Z,15.20
2024-01-15T02:39:56.682Z,16.10
2024-01-15T02:42:58.351Z,13.73
2024-01-15T02:46:00.004Z,16.95
2024-01-15T02:49:01.787Z,17.65
2024-01-15T02:52:03.767Z,16.70
2024-01-15T02:55:05.876Z,15.20
2024-01-15T02:58:08.810Z,18.55
2024-01-15T03:01:10.570Z,16.33
2024-01-15T03:04:12.430Z,11.52
2024-01-15T03:07:14.350Z,15.93
2024-01-15T03:10:16.070Z,14.05
2024-01-15T03:13:17.850Z,14.80
2024-01-15T03:16:21.278Z,16.85
2024-01-15T03:19:23.114Z,12.25
2024-01-15T03:22:25.299Z,14.07
2024-01-15T03:25:27.056Z,12.27
2024-01-15T03:28:28.718Z,11.27
2024-01-15T03:31:30.553Z,14.77
2024-01-15T03:34:32.454Z,13.35
2024-01-15T03:37:34.185Z,12.93
2024-01-15T03:40:36.009Z,13.27
2024-01-15T03:43:37.819Z,11.70
2024-01-15T03:46:40.386Z,11.88
2024-01-15T03:49:42.146Z,11.83
2024-01-15T03:52:44.081Z,12.80
2024-01-15T03:55:45.746Z,13.23
2024-01-15T03:58:47.464Z,13.25
2024-01-15T04:01:51.288Z,10.23
2024-01-15T04:04:53.045Z,13.73
2024-01-15T04:07:54.763Z,14.68
2024-01-15T04:10:57.110Z,12.20
2024-01-15T04:13:58.911Z,11.13
2024-01-15T04:17:00.559Z,11.55
2024-01-15T04:20:02.329Z,11.88
2024-01-15T04:23:04.172Z,13.20
2024-01-15T04:26:05.825Z,11.98
2024-01-15T04:29:07.612Z,10.82
2024-01-15T04:32:09.356Z,10.85
2024-01-15T04:35:11.120Z,15.18
2024-01-15T04:38:12.883Z,13.98
2024-01-15T04:41:15.307Z,9.45
2024-01-15T04:44:17.070Z,9.87
2024-01-15T04:47:18.752Z,10.02
2024-01-15T04:50:20.568Z,10.57
2024-01-15T04:53:22.446Z,12.02
2024-01-15T04:56:24.254Z,9.65
2024-01-15T04:59:26.094Z,8.73
2024-01-15T05:02:27.797Z,8.73
2024-01-15T05:05:29.478Z,10.35
2024-01-15T05:08:33.645Z,11.40
2024-01-15T05:11:41.323Z,8.35
2024-01-15T05:14:51.360Z,12.15
2024-01-15T05:17:56.023Z,9.63
2024-01-15T05:21:01.472Z,9.18
2024-01-15T05:24:11.855Z,12.30
2024-01-15T05:27:15.114Z,14.70
2024-01-15T05:30:17.730Z,10.10
2024-01-15T05:33:19.734Z,10.68
2024-01-15T05:36:25.601Z,12.70
2024-01-15T05:39:35.481Z,11.00
2024-01-15T05:42:43.998Z,14.27
2024-01-15T05:45:52.560Z,13.85
2024-01-15T05:49:00.592Z,10.15
2024-01-15T05:52:07.185Z,12.52
2024-01-15T05:55:13.653Z,10.85
2024-01-15T05:58:21.223Z,13.50
2024-01-15T06:01:26.282Z,16.38
2024-01-15T06:04:38.430Z,12.65
2024-01-15T06:07:50.699Z,13.88
2024-01-15T06:11:04.482Z,13.35
2024-01-15T06:14:12.706Z,11.93
2024-01-15T06:17:21.572Z,14.55
2024-01-15T06:20:28.053Z,13.77
2024-01-15T06:23:31.858Z,14.23
2024-01-15T06:26:37.161Z,13.23
2024-01-15T06:29:41.863Z,11.07
2024-01-15T06:32:45.930Z,13.85
2024-01-15T06:35:51.852Z,12.98
2024-01-15T06:38:56.599Z,13.68
2024-01-15T06:42:02.151Z,18.10
2024-01-15T06:45:13.108Z,15.77
2024-01-15T06:48:22.205Z,16.45
2024-01-15T06:51:28.394Z,16.77
2024-01-15T06:54:33.335Z,20.63
2024-01-15T06:57:37.809Z,15.73
2024-01-15T07:00:43.136Z,22.35
2024-01-15T07:03:50.338Z,14.15
2024-01-15T07:06:53.160Z,20.90
2024-01-15T07:09:55.098Z,16.90
2024-01-15T07:12:59.040Z,20.33
2024-01-15T07:16:01.185Z,12.52
2024-01-15T07:19:06.218Z,24.17
2024-01-15T07:22:08.357Z,20.20
2024-01-15T07:25:23.891Z,19.95
2024-01-15T07:28:47.528Z,16.92
2024-01-15T07:31:51.548Z,15.40
2024-01-15T07:35:01.057Z,19.38
2024-01-15T07:38:02.867Z,13.23
2024-01-15T07:41:07.313Z,17.85
2024-01-15T07:44:09.263Z,14.38
2024-01-15T07:47:11.075Z,17.00
2024-01-15T07:50:13.313Z,14.40
2024-01-15T07:53:15.651Z,11.47
2024-01-15T07:56:17.561Z,15.52
2024-01-15T07:59:21.586Z,14.00
2024-01-15T08:02:28.512Z,18.42
2024-01-15T08:05:45.080Z,15.93
2024-01-15T08:08:58.195Z,19.30
2024-01-15T08:12:11.354Z,16.05
2024-01-15T08:15:22.729Z,20.45
2024-01-15T08:18:25.482Z,20.52
2024-01-15T08:21:40.324Z,26.60
2024-01-15T08:24:46.054Z,23.40
2024-01-15T08:28:13.192Z,22.90
2024-01-15T08:34:59.174Z,23.35
2024-01-15T08:38:21.506Z,21.53
2024-01-15T08:41:32.033Z,21.13
2024-01-15T08:44:52.191Z,25.42
2024-01-15T08:47:58.997Z,24.73
2024-01-15T08:51:03.901Z,25.45
2024-01-15T08:54:06.667Z,25.27
2024-01-15T08:57:17.608Z,20.67
2024-01-15T09:00:20.241Z,24.35
2024-01-15T09:03:32.845Z,21.20
2024-01-15T09:06:35.436Z,21.77
2024-01-15T09:09:38.690Z,26.45
2024-01-15T09:12:44.111Z,16.05
2024-01-15T09:15:49.097Z,22.92
2024-01-15T09:18:51.484Z,19.90
2024-01-15T09:21:57.350Z,21.30
2024-01-15T09:25:02.522Z,17.65
2024-01-15T09:28:05.147Z,24.10
2024-01-15T09:31:07.557Z,17.40
2024-01-15T09:34:12.511Z,21.33
2024-01-15T09:37:37.229Z,20.63
2024-01-15T09:40:48.860Z,20.10
2024-01-15T09:43:58.637Z,18.83
2024-01-15T09:47:06.840Z,18.60
2024-01-15T09:50:14.022Z,13.82
2024-01-15T09:53:20.696Z,16.63
2024-01-15T09:56:25.559Z,12.00
2024-01-15T09:59:29.309Z,14.88
2024-01-15T10:02:32.123Z,15.68
2024-01-15T10:05:34.223Z,13.65
2024-01-15T10:08:44.614Z,14.98
2024-01-15T10:11:54.922Z,16.05
2024-01-15T10:15:09.039Z,13.25
2024-01-15T10:18:11.817Z,16.45
2024-01-15T10:21:15.607Z,15.43
2024-01-15T10:24:18.954Z,12.73
2024-01-15T10:27:20.726Z,10.77
2024-01-15T10:30:22.544Z,12.20
2024-01-15T10:33:28.016Z,9.73
2024-01-15T10:36:31.006Z,12.45
2024-01-15T10:39:33.050Z,10.52
2024-01-15T10:42:39.496Z,10.75
2024-01-15T10:45:41.696Z,17.33
2024-01-15T10:48:43.878Z,13.27
2024-01-15T10:51:45.897Z,11.23
2024-01-15T10:54:48.724Z,15.20
2024-01-15T10:57:51.153Z,14.25
2024-01-15T11:00:53.782Z,11.27
2024-01-15T11:03:58.715Z,11.50
2024-01-15T11:07:01.304Z,12.43
2024-01-15T11:10:05.471Z,14.32
2024-01-15T11:13:10.188Z,13.13
2024-01-15T11:16:13.771Z,11.05
2024-01-15T11:19:15.803Z,12.10
2024-01-15T11:22:33.771Z,12.90
2024-01-15T11:25:38.758Z,12.18
2024-01-15T11:28:50.003Z,15.02
2024-01-15T11:31:51.996Z,16.17
2024-01-15T11:35:10.468Z,14.23
2024-01-15T11:38:12.846Z,14.75
2024-01-15T11:41:18.547Z,14.63
2024-01-15T11:44:20.739Z,13.13
2024-01-15T11:47:42.443Z,12.35
2024-01-15T11:50:51.376Z,8.10
2024-01-15T11:53:59.275Z,10.38
2024-01-15T11:57:08.702Z,8.32
2024-01-15T12:00:12.910Z,7.50
2024-01-15T12:03:15.271Z,7.43
2024-01-15T12:06:17.120Z,6.15
2024-01-15T12:09:23.149Z,5.85
2024-01-15T12:13:04.199Z,5.90
2024-01-15T12:16:06.119Z,10.02
2024-01-15T12:19:08.217Z,5.25
2024-01-15T12:22:10.588Z,4.03
2024-01-15T12:25:12.385Z,4.05
2024-01-15T12:28:14.302Z,3.47
2024-01-15T12:31:16.325Z,3.22
2024-01-15T12:34:18.737Z,2.83
2024-01-15T12:37:20.979Z,2.57
2024-01-15T12:40:23.950Z,1.83
2024-01-15T12:43:26.144Z,2.15
2024-01-15T12:46:31.615Z,1.83
2024-01-15T12:49:34.542Z,1.65
2024-01-15T12:55:49.317Z,1.38
2024-01-15T12:58:51.493Z,2.85
2024-01-15T13:01:56.539Z,0.90
2024-01-15T13:05:01.095Z,2.25
2024-01-15T13:08:05.133Z,1.42
2024-01-15T13:11:07.024Z,1.23
2024-01-15T13:14:08.741Z,1.05
2024-01-15T13:17:10.419Z,2.15
2024-01-15T13:20:14.062Z,1.98
2024-01-15T13:23:16.362Z,2.40
2024-01-15T13:26:20.821Z,3.85
2024-01-15T13:29:22.563Z,2.78
2024-01-15T13:32:29.857Z,2.85
2024-01-15T13:35:38.108Z,3.08
2024-01-15T13:38:43.198Z,2.35
2024-01-15T13:41:48.645Z,2.30
2024-01-15T13:44:50.915Z,2.30
2024-01-15T13:47:53.205Z,2.00
2024-01-15T13:50:55.190Z,4.50
2024-01-15T13:53:56.999Z,7.20
2024-01-15T13:57:00.050Z,4.35
2024-01-15T14:00:02.024Z,4.88
2024-01-15T14:03:04.725Z,7.97
2024-01-15T14:06:10.027Z,5.13
2024-01-15T14:09:12.251Z,3.78
2024-01-15T14:12:14.093Z,3.47
2024-01-15T14:15:16.055Z,4.82
2024-01-15T14:18:19.868Z,2.97
2024-01-15T14:21:22.603Z,3.33
2024-01-15T14:24:24.309Z,3.70
2024-01-15T14:27:26.107Z,6.60
2024-01-15T14:30:28.468Z,6.90
2024-01-15T14:33:30.573Z,4.10
2024-01-15T14:36:32.572Z,4.03
2024-01-15T14:39:35.693Z,7.30
2024-01-15T14:42:38.189Z,5.75
2024-01-15T14:45:40.083Z,6.23
2024-01-15T14:51:45.740Z,6.80
2024-01-15T14:54:49.156Z,8.70
2024-01-15T14:57:51.885Z,4.22
2024-01-15T15:00:55.324Z,4.78
2024-01-15T15:03:57.633Z,7.07
2024-01-15T15:06:59.931Z,5.47
2024-01-15T15:10:01.919Z,5.32
2024-01-15T15:13:03.875Z,7.60
2024-01-15T15:16:07.627Z,2.28
2024-01-15T15:19:09.933Z,5.60
2024-01-15T15:22:11.981Z,5.10
2024-01-15T15:25:13.834Z,5.03
2024-01-15T15:28:17.307Z,4.35
2024-01-15T15:31:19.169Z,6.38
2024-01-15T15:34:21.057Z,6.75
2024-01-15T15:37:22.796Z,7.30
2024-01-15T15:40:25.586Z,4.70
2024-01-15T15:43:28.032Z,8.50
2024-01-15T15:46:29.694Z,5.90
2024-01-15T15:49:31.788Z,2.75
2024-01-15T15:52:33.547Z,5.45
2024-01-15T15:55:37.506Z,4.05
2024-01-15T15:58:39.645Z,2.70
2024-01-15T16:01:41.381Z,4.63
2024-01-15T16:04:43.675Z,3.30
2024-01-15T16:07:45.620Z,7.47
2024-01-15T16:10:49.708Z,4.95
2024-01-15T16:13:51.617Z,5.88
2024-01-15T16:23:13.278Z,18.30
2024-01-15T16:23:30.042Z,3.35
2024-01-15T16:24:07.924Z,2.60
2024-01-15T16:27:03.348Z,3.38
2024-01-15T16:30:12.300Z,5.40
2024-01-15T16:33:19.407Z,4.28
2024-01-15T16:36:22.069Z,16.90
2024-01-15T16:39:23.975Z,6.25
2024-01-15T16:42:25.704Z,14.25
2024-01-15T16:45:27.645Z,67.53
2024-01-15T16:48:29.534Z,4.13
2024-01-15T16:51:31.456Z,14.15
2024-01-15T16:54:34.371Z,3.25
2024-01-15T16:57:36.237Z,4.57
2024-01-15T17:00:39.358Z,3.03
2024-01-15T17:03:42.562Z,3.55
2024-01-15T17:06:44.528Z,6.55
2024-01-15T17:09:46.406Z,5.40
2024-01-15T17:12:49.056Z,3.75
2024-01-15T17:16:02.707Z,4.57
2024-01-15T17:19:16.078Z,3.53
2024-01-15T17:22:18.035Z,3.40
2024-01-15T17:25:20.552Z,3.30
2024-01-15T17:28:24.582Z,4.28
2024-01-15T17:31:26.675Z,3.97
2024-01-15T17:34:28.969Z,5.60
2024-01-15T17:37:30.746Z,7.30
2024-01-15T17:40:32.475Z,3.00
2024-01-15T17:43:35.274Z,3.75
2024-01-15T17:46:37.044Z,6.18
2024-01-15T17:49:38.887Z,4.15
2024-01-15T17:52:40.945Z,5.05
2024-01-15T17:55:43.561Z,14.82
2024-01-15T17:58:45.202Z,6.90
2024-01-15T18:01:48.060Z,7.82
2024-01-15T18:04:49.842Z,4.47
2024-01-15T18:07:51.594Z,4.28
2024-01-15T18:10:53.361Z,6.05
2024-01-15T18:13:55.153Z,3.50
2024-01-15T18:16:58.143Z,3.13
2024-01-15T18:19:59.872Z,4.80
2024-01-15T18:23:01.598Z,4.30
2024-01-15T18:26:03.820Z,2.40
2024-01-15T18:29:05.540Z,4.47
2024-01-15T18:32:07.554Z,3.33
2024-01-15T18:35:09.481Z,2.85
2024-01-15T18:38:11.281Z,5.10
2024-01-15T18:41:23.150Z,4.28
2024-01-15T18:44:24.924Z,7.25
2024-01-15T18:47:26.968Z,6.07
2024-01-15T18:50:30.096Z,4.95
2024-01-15T18:53:32.175Z,6.18
2024-01-15T18:56:37.327Z,5.53
2024-01-15T18:59:41.255Z,2.75
2024-01-15T19:02:43.238Z,3.90
2024-01-15T19:05:45.712Z,14.38
2024-01-15T19:08:47.524Z,5.93
2024-01-15T19:11:49.406Z,6.90
2024-01-15T19:14:51.042Z,7.38
2024-01-15T19:17:52.876Z,4.65
2024-01-15T19:20:55.594Z,4.47
2024-01-15T19:23:57.339Z,5.55
2024-01-15T19:26:58.996Z,12.13
2024-01-15T19:30:00.597Z,6.20
2024-01-15T19:33:02.671Z,4.47
2024-01-15T19:36:04.626Z,19.38
2024-01-15T19:39:06.477Z,5.15
2024-01-15T19:42:08.341Z,5.18
2024-01-15T19:45:10.076Z,4.45
2024-01-15T19:48:13.031Z,7.65
2024-01-15T19:51:16.673Z,8.80
2024-01-15T19:54:19.376Z,9.70
2024-01-15T19:57:20.999Z,5.57
2024-01-15T20:00:22.761Z,6.90
2024-01-15T20:03:24.517Z,4.18
2024-01-15T20:06:26.277Z,5.57
2024-01-15T20:09:28.860Z,8.65
2024-01-15T20:12:30.777Z,8.20
2024-01-15T20:15:34.372Z,4.40
2024-01-15T20:18:36.435Z,5.35
2024-01-15T20:21:38.206Z,6.90
2024-01-15T20:24:40.085Z,6.45
2024-01-15T20:27:41.800Z,4.95
2024-01-15T20:30:43.558Z,8.40
2024-01-15T20:33:45.581Z,9.73
2024-01-15T20:36:47.747Z,6.13
2024-01-15T20:39:49.598Z,4.18
2024-01-15T20:42:51.409Z,4.43
2024-01-15T20:45:53.542Z,3.90
2024-01-15T20:48:55.559Z,3.72
2024-01-15T20:51:57.474Z,4.78
2024-01-15T20:54:59.422Z,7.10
2024-01-15T20:58:02.565Z,6.90
2024-01-15T21:01:08.559Z,3.47
2024-01-15T21:04:12.920Z,8.43
2024-01-15T21:07:14.580Z,7.82
2024-01-15T21:10:16.256Z,5.32
2024-01-15T21:13:18.822Z,7.75
2024-01-15T21:16:21.057Z,5.63
2024-01-15T21:19:24.193Z,5.07
2024-01-15T21:22:25.945Z,4.38
2024-01-15T21:25:27.688Z,2.75
2024-01-15T21:28:31.337Z,6.97
2024-01-15T21:31:38.979Z,4.15
2024-01-15T21:34:40.914Z,3.20
2024-01-15T21:37:44.145Z,6.32
2024-01-15T21:40:45.785Z,6.25
2024-01-15T21:43:47.655Z,7.13
2024-01-15T21:46:49.348Z,4.00
2024-01-15T21:49:50.937Z,5.57
2024-01-15T21:52:52.650Z,11.07
2024-01-15T21:55:54.385Z,5.85
2024-01-15T21:58:56.126Z,5.78
2024-01-15T22:01:57.901Z,4.63
2024-01-15T22:04:59.818Z,4.18
2024-01-15T22:08:02.514Z,4.40
2024-01-15T22:11:05.386Z,3.67
2024-01-15T22:14:07.144Z,4.43
2024-01-15T22:17:08.881Z,4.57
2024-01-15T22:20:11.175Z,7.82
2024-01-15T22:23:12.951Z,5.82
2024-01-15T22:26:14.852Z,8.50
2024-01-15T22:29:17.376Z,7.07
2024-01-15T22:32:19.358Z,5.43
2024-01-15T22:35:21.095Z,4.35
2024-01-15T22:38:23.125Z,5.97
2024-01-15T22:41:24.866Z,7.15
2024-01-15T22:44:26.632Z,5.07
2024-01-15T22:47:28.518Z,7.80
2024-01-15T22:50:30.434Z,4.63
2024-01-15T22:53:33.113Z,5.68
2024-01-15T22:56:35.011Z,3.30
2024-01-15T22:59:37.368Z,4.28
2024-01-15T23:02:39.401Z,9.13
2024-01-15T23:05:41.342Z,5.43
2024-01-15T23:08:43.418Z,4.20
2024-01-15T23:11:48.675Z,6.93
2024-01-15T23:14:50.620Z,5.95
2024-01-15T23:17:52.820Z,8.80
2024-01-15T23:20:54.539Z,7.50
2024-01-15T23:23:56.176Z,7.13
2024-01-15T23:26:57.876Z,6.15
2024-01-15T23:29:59.765Z,9.55
2024-01-15T23:33:01.640Z,6.10
2024-01-15T23:36:04.468Z,3.92
2024-01-15T23:39:09.102Z,7.03
2024-01-15T23:42:14.066Z,8.40
2024-01-15T23:45:17.265Z,4.85
2024-01-15T23:48:19.034Z,10.35
2024-01-15T23:51:20.733Z,5.43
2024-01-15T23:54:22.393Z,8.10
2024-01-15T23:57:24.339Z,9.73
